Latest Weather Observations for Mardie

IDW60801

Issued at 9:05 am WST Sunday 26 October 2014 (issued every 30 minutes, with the page automatically refreshed every 10 minutes)

About weather observations | Map of weather stations | Latest weather observations for WA | Other Formats
Station Details ID: 005008 Name: MARDIE Lat: -21.19 Lon: 115.98 Height: 11.0 m
Data from the previous 72 hours. | See also: Recent months at Mardie
Date/Time
WST
Temp
°C
App
Temp
°C
Dew
Point
Rel
Hum
%
Delta-T
°C
Wind Press
QNH
hPa
Press
MSL
hPa
Rain
since 9 am
mm
Dir
 
Spd
km/h
Gust
km/h
Spd
kts
Gust
kts
26/09:00am 31.5 27.2 5.1 19 13.9 SSW 17 24 9 13 1014.4 1014.4 0.0
26/08:30am 29.5 25.4 6.2 23 12.3 SSW 17 22 9 12 1014.3 1014.3 0.0
26/08:00am 28.3 24.2 6.4 25 11.6 SSW 17 22 9 12 1014.1 1014.1 0.0
26/07:30am 26.6 22.2 6.6 28 10.5 SSW 19 24 10 13 1013.9 1013.9 0.0
26/07:00am 24.4 20.5 7.1 33 9.0 SW 17 22 9 12 1013.7 1013.7 0.0
26/06:30am 22.2 19.5 7.2 38 7.7 SW 11 15 6 8 1013.6 1013.6 0.0
26/06:00am 21.2 17.7 7.1 40 7.2 SW 15 20 8 11 1013.2 1013.2 0.0
26/05:30am 20.9 18.2 7.2 41 7.0 SW 11 15 6 8 1013.1 1013.1 0.0
26/05:00am 20.9 18.5 7.2 41 7.0 SW 9 11 5 6 1013.1 1013.1 0.0
26/04:30am 21.6 18.5 7.1 39 7.4 SW 13 15 7 8 1012.8 1012.8 0.0
26/04:00am 21.8 19.2 7.6 40 7.4 SW 11 15 6 8 1012.5 1012.5 0.0
26/03:30am 22.0 18.6 7.8 40 7.4 SW 15 17 8 9 1012.3 1012.3 0.0
26/03:00am 22.3 19.8 8.4 41 7.3 SW 11 13 6 7 1012.2 1012.2 0.0
26/02:30am 22.7 20.1 9.5 43 7.1 SW 13 17 7 9 1012.2 1012.2 0.0
26/02:00am 23.2 20.6 10.6 45 7.0 SW 15 19 8 10 1012.3 1012.3 0.0
26/01:30am 23.0 21.7 12.6 52 5.9 SW 11 13 6 7 1012.6 1012.6 0.0
26/01:00am 23.2 22.7 13.9 56 5.4 SW 9 13 5 7 1012.9 1012.9 0.0
26/12:30am 23.3 23.4 15.4 61 4.7 SW 9 11 5 6 1013.1 1013.1 0.0
26/12:00am 24.0 24.9 16.5 63 4.6 WSW 7 9 4 5 1013.2 1013.2 0.0
 
Date/Time
WST
Temp
°C
App
Temp
°C
Dew
Point
Rel
Hum
%
Delta-T
°C
Wind Press
QNH
hPa
Press
MSL
hPa
Rain
since 9 am
mm
Dir
 
Spd
km/h
Gust
km/h
Spd
kts
Gust
kts
25/11:30pm 24.5 25.4 17.5 65 4.4 WSW 9 11 5 6 1013.4 1013.4 0.0
25/11:00pm 24.7 25.9 18.2 67 4.1 WSW 9 11 5 6 1013.6 1013.6 0.0
25/10:30pm 25.1 26.0 18.5 67 4.2 WSW 11 13 6 7 1013.7 1013.7 0.0
25/10:00pm 25.5 26.2 18.9 67 4.2 WSW 13 15 7 8 1013.8 1013.8 0.0
25/09:30pm 25.8 26.3 19.2 67 4.2 WSW 15 20 8 11 1013.8 1013.8 0.0
25/09:00pm 25.8 25.4 19.0 66 4.4 WSW 19 22 10 12 1013.9 1013.9 0.0
25/08:30pm 25.9 25.5 18.8 65 4.5 WSW 19 26 10 14 1013.9 1013.9 0.0
25/08:00pm 26.2 25.5 18.6 63 4.8 W 20 30 11 16 1013.9 1013.9 0.0
25/07:30pm 26.5 25.7 18.4 61 5.2 W 20 28 11 15 1013.7 1013.7 0.0
25/07:00pm 26.9 25.0 17.7 57 5.8 W 24 32 13 17 1013.4 1013.4 0.0
25/06:30pm 27.6 25.1 17.2 53 6.5 W 26 37 14 20 1013.2 1013.2 0.0
25/06:00pm 28.6 26.1 17.2 50 7.2 W 26 37 14 20 1013.0 1013.0 0.0
25/05:30pm 29.5 26.7 17.3 47 7.7 W 28 39 15 21 1012.8 1012.8 0.0
25/05:00pm 30.2 26.4 16.6 44 8.5 W 32 44 17 24 1012.5 1012.5 0.0
25/04:30pm 31.2 27.0 15.6 39 9.7 W 32 46 17 25 1012.4 1012.4 0.0
25/04:00pm 31.7 27.3 15.6 37 10.0 W 33 43 18 23 1012.4 1012.4 0.0
25/03:30pm 33.2 28.5 14.8 33 11.4 W 33 43 18 23 1012.3 1012.3 0.0
25/03:00pm 34.2 29.1 13.1 28 12.7 W 32 41 17 22 1012.3 1012.3 0.0
25/02:30pm 35.7 31.0 12.0 24 14.2 W 28 39 15 21 1012.5 1012.5 0.0
25/02:00pm 35.2 29.4 11.6 24 14.0 W 33 43 18 23 1012.7 1012.7 0.0
25/01:30pm 36.5 31.6 12.7 24 14.4 W 30 41 16 22 1012.9 1012.9 0.0
25/01:00pm 35.6 30.7 12.5 24 13.9 W 30 39 16 21 1013.2 1013.2 0.0
25/12:30pm 35.5 31.0 12.5 25 13.8 W 28 35 15 19 1013.5 1013.5 0.0
25/12:00pm 34.5 30.4 13.9 29 12.6 W 28 33 15 18 1014.0 1014.0 0.0
25/11:30am 35.2 32.1 12.2 25 13.8 W 20 32 11 17 1014.3 1014.3 0.0
25/11:00am 36.5 30.1 -4.8 7 19.1 SSW 20 32 11 17 1014.6 1014.6 0.0
25/10:30am 35.8 29.4 -5.3 7 18.7 SSW 20 32 11 17 1014.9 1014.9 0.0
25/10:00am 35.1 29.2 -1.1 10 17.6 SW 20 30 11 16 1015.1 1015.1 0.0
25/09:30am 33.6 28.8 2.4 14 15.9 SSW 17 28 9 15 1015.0 1015.0 0.0
25/09:00am 31.6 26.8 4.4 18 14.1 SSW 19 26 10 14 1015.1 1015.1 0.0
25/08:30am 29.4 25.4 6.7 24 12.1 SSW 17 22 9 12 1015.2 1015.2 0.0
25/08:00am 27.7 23.4 7.0 27 11.0 SSW 19 24 10 13 1015.1 1015.1 0.0
25/07:30am 25.8 21.5 6.9 30 9.9 SSW 19 24 10 13 1014.6 1014.6 0.0
25/07:00am 23.4 19.5 7.1 35 8.5 SW 17 22 9 12 1014.7 1014.7 0.0
25/06:30am 21.5 18.8 7.3 40 7.3 SW 11 15 6 8 1014.5 1014.5 0.0
25/06:00am 20.5 17.3 6.8 41 6.9 SW 13 17 7 9 1014.0 1014.0 0.0
25/05:30am 20.6 17.7 6.5 40 7.1 SW 11 15 6 8 1013.7 1013.7 0.0
25/05:00am 21.0 17.7 6.2 38 7.4 SW 13 17 7 9 1013.5 1013.5 0.0
25/04:30am 21.3 18.0 6.4 38 7.5 SW 13 17 7 9 1013.1 1013.1 0.0
25/04:00am 21.6 17.9 6.3 37 7.7 SW 15 19 8 10 1012.7 1012.7 0.0
25/03:30am 21.4 18.0 5.7 36 7.8 SW 13 15 7 8 1012.7 1012.7 0.0
25/03:00am 22.0 18.6 5.8 35 8.1 SW 13 15 7 8 1012.5 1012.5 0.0
25/02:30am 21.9 18.7 5.3 34 8.3 SW 11 13 6 7 1012.4 1012.4 0.0
25/02:00am 21.9 18.7 5.3 34 8.3 SW 11 11 6 6 1012.4 1012.4 0.0
25/01:30am 22.6 20.2 5.1 32 8.7 SW 7 9 4 5 1012.4 1012.4 0.0
25/01:00am 23.1 20.4 5.5 32 8.9 SSW 9 13 5 7 1012.4 1012.4 0.0
25/12:30am 23.8 21.1 5.7 31 9.2 SW 9 13 5 7 1012.6 1012.6 0.0
25/12:00am 24.5 21.8 5.8 30 9.5 SW 9 13 5 7 1012.6 1012.6 0.0
 
Date/Time
WST
Temp
°C
App
Temp
°C
Dew
Point
Rel
Hum
%
Delta-T
°C
Wind Press
QNH
hPa
Press
MSL
hPa
Rain
since 9 am
mm
Dir
 
Spd
km/h
Gust
km/h
Spd
kts
Gust
kts
24/11:30pm 25.0 22.3 7.2 32 9.3 SW 11 13 6 7 1012.7 1012.7 0.0
24/11:00pm 25.5 23.0 8.1 33 9.3 SW 11 15 6 8 1012.8 1012.8 0.0
24/10:30pm 26.3 23.0 9.6 35 9.2 SW 17 22 9 12 1012.7 1012.7 0.0
24/10:00pm 26.6 24.0 13.3 43 7.8 WSW 19 28 10 15 1012.5 1012.5 0.0
24/09:30pm 26.3 24.2 16.3 54 6.2 WSW 22 30 12 16 1012.2 1012.2 0.0
24/09:00pm 26.0 24.0 17.4 59 5.4 W 24 33 13 18 1012.0 1012.0 0.0
24/08:30pm 25.9 23.9 17.3 59 5.4 W 24 33 13 18 1011.9 1011.9 0.0
24/08:00pm 26.2 23.9 16.7 56 5.9 W 24 35 13 19 1011.6 1011.6 0.0
24/07:30pm 26.7 24.1 16.0 52 6.6 W 24 37 13 20 1011.2 1011.2 0.0
24/07:00pm 27.2 24.3 16.2 51 6.8 W 26 33 14 18 1010.9 1010.9 0.0
24/06:30pm 27.7 25.8 16.6 50 6.9 W 22 30 12 16 1010.4 1010.4 0.0
24/06:00pm 29.0 25.5 14.4 41 8.8 W 26 35 14 19 1010.2 1010.2 0.0
24/05:30pm 30.5 25.2 12.4 33 10.7 W 32 44 17 24 1009.9 1009.9 0.0
24/05:00pm 30.5 25.8 13.3 35 10.3 W 30 43 16 23 1009.7 1009.7 0.0
24/04:30pm 31.8 27.5 15.3 37 10.2 W 32 43 17 23 1009.5 1009.5 0.0
24/04:00pm 33.4 29.2 13.5 30 12.1 W 28 41 15 22 1009.5 1009.5 0.0
24/03:30pm 34.3 29.2 12.0 25 13.3 W 30 39 16 21 1009.6 1009.6 0.0
24/03:00pm 34.1 29.9 12.4 26 13.0 W 26 35 14 19 1009.8 1009.8 0.0
24/02:30pm 33.2 28.3 13.8 31 11.8 WNW 32 41 17 22 1010.1 1010.1 0.0
24/02:00pm 34.4 30.5 13.3 28 12.8 WNW 26 35 14 19 1010.3 1010.3 0.0
24/01:30pm 34.3 29.8 12.6 27 13.0 WNW 28 33 15 18 1010.6 1010.6 0.0
24/01:00pm 35.2 31.1 11.6 24 14.0 W 24 30 13 16 1011.0 1011.0 0.0
24/12:30pm 34.8 31.0 12.5 26 13.4 WNW 24 33 13 18 1011.2 1011.2 0.0
24/12:00pm 35.5 31.5 10.5 22 14.6 W 22 32 12 17 1011.5 1011.5 0.0
24/11:30am 34.3 31.1 13.2 28 12.8 W 22 30 12 16 1011.9 1011.9 0.0
24/11:00am 33.9 31.4 12.3 27 12.9 W 17 22 9 12 1012.2 1012.2 0.0
24/10:30am 34.0 30.9 7.1 19 14.8 W 13 19 7 10 1012.3 1012.3 0.0
24/10:00am 32.4 29.3 7.3 21 13.7 WSW 13 20 7 11 1012.7 1012.7 0.0
24/09:30am 31.6 29.6 8.6 24 12.8 SW 9 15 5 8 1012.6 1012.6 0.0
24/09:00am 29.6 28.0 8.6 27 11.6 SW 7 15 4 8 1012.9 1012.9 0.0
24/08:30am 27.4 25.4 8.8 31 10.2 SSW 9 15 5 8 1012.8 1012.8 0.0
24/08:00am 25.7 23.0 9.1 35 9.0 SSW 13 19 7 10 1012.8 1012.8 0.0
24/07:30am 23.9 21.0 9.5 40 7.8 SSW 15 20 8 11 1012.6 1012.6 0.0
24/07:00am 22.4 20.0 10.2 46 6.7 SSW 13 19 7 10 1012.7 1012.7 0.0
24/06:30am 20.7 19.2 10.5 52 5.5 SSW 9 13 5 7 1012.7 1012.7 0.0
24/06:00am 19.8 17.9 10.5 55 5.0 SW 11 15 6 8 1012.2 1012.2 0.0
24/05:30am 19.8 17.9 10.5 55 5.0 SW 11 15 6 8 1012.0 1012.0 0.0
24/05:00am 20.4 18.2 10.8 54 5.2 SW 13 17 7 9 1011.5 1011.5 0.0
24/04:30am 20.8 18.7 11.2 54 5.3 SW 13 19 7 10 1011.4 1011.4 0.0
24/04:00am 20.5 18.9 11.4 56 5.0 SW 11 15 6 8 1011.5 1011.5 0.0
24/03:30am 21.2 18.9 11.8 55 5.2 SW 15 19 8 10 1011.4 1011.4 0.0
24/03:00am 21.2 20.2 12.3 57 5.0 SW 9 15 5 8 1011.4 1011.4 0.0
24/02:30am 21.8 20.1 12.6 56 5.2 SW 13 17 7 9 1011.5 1011.5 0.0
24/02:00am 21.8 20.6 12.9 57 5.1 SW 11 15 6 8 1011.6 1011.6 0.0
24/01:30am 22.3 20.9 13.4 57 5.1 SW 13 17 7 9 1011.7 1011.7 0.0
24/01:00am 23.1 21.8 13.8 55 5.4 SW 13 19 7 10 1011.9 1011.9 0.0
24/12:30am 23.5 22.3 13.9 55 5.6 WSW 13 19 7 10 1012.0 1012.0 0.0
24/12:00am 24.0 22.5 14.1 54 5.8 WSW 15 20 8 11 1012.3 1012.3 0.0
 
Date/Time
WST
Temp
°C
App
Temp
°C
Dew
Point
Rel
Hum
%
Delta-T
°C
Wind Press
QNH
hPa
Press
MSL
hPa
Rain
since 9 am
mm
Dir
 
Spd
km/h
Gust
km/h
Spd
kts
Gust
kts
23/11:30pm 24.4 22.9 14.2 53 6.0 WSW 15 19 8 10 1012.5 1012.5 0.0
23/11:00pm 24.9 23.0 14.1 51 6.4 WSW 17 20 9 11 1012.7 1012.7 0.0
23/10:30pm 25.3 23.1 14.4 50 6.5 WSW 19 26 10 14 1012.8 1012.8 0.0
23/10:00pm 25.8 23.8 15.5 53 6.2 WSW 20 26 11 14 1012.8 1012.8 0.0
23/09:30pm 25.8 24.7 17.4 59 5.2 WSW 19 26 10 14 1012.8 1012.8 0.0
23/09:00pm 25.9 25.0 18.1 62 4.9 W 20 28 11 15 1012.7 1012.7 0.0
23/08:30pm 25.8 24.9 18.2 63 4.8 W 20 28 11 15 1012.4 1012.4 0.0
23/08:00pm 25.7 24.4 18.1 63 4.8 W 22 32 12 17 1012.2 1012.2 0.0
23/07:30pm 25.8 23.8 18.2 63 4.8 W 26 37 14 20 1012.0 1012.0 0.0
23/07:00pm 26.1 24.0 18.0 61 5.1 W 26 37 14 20 1011.7 1011.7 0.0
23/06:30pm 26.6 24.3 17.7 58 5.6 W 26 37 14 20 1011.4 1011.4 0.0
23/06:00pm 27.2 24.2 17.7 56 6.0 W 30 39 16 21 1010.9 1010.9 0.0
23/05:30pm 28.6 24.8 16.8 48 7.4 W 32 43 17 23 1010.6 1010.6 0.0
23/05:00pm 29.8 25.0 16.6 45 8.3 W 37 48 20 26 1010.3 1010.3 0.0
23/04:30pm 30.0 25.1 16.4 44 8.5 W 37 48 20 26 1010.2 1010.2 0.0
23/04:00pm 31.2 27.6 17.1 42 8.9 W 32 41 17 22 1010.2 1010.2 0.0
23/03:30pm 31.1 26.8 17.0 42 8.9 W 35 44 19 24 1010.2 1010.2 0.0
23/03:00pm 32.9 28.6 15.4 35 10.9 W 32 43 17 23 1010.3 1010.3 0.0
23/02:30pm 33.3 28.8 14.8 32 11.4 W 32 41 17 22 1010.7 1010.7 0.0
23/02:00pm 34.1 30.3 14.6 31 12.0 W 28 35 15 19 1010.9 1010.9 0.0
23/01:30pm 34.7 31.0 14.0 28 12.7 W 26 35 14 19 1011.1 1011.1 0.0
23/01:00pm 36.5 32.1 6.6 16 16.5 SW 19 33 10 18 1011.4 1011.4 0.0
23/12:30pm 36.8 32.1 5.9 15 16.9 SSW 20 32 11 17 1011.8 1011.8 0.0
23/12:00pm 36.0 31.9 8.0 18 15.8 SSW 19 30 10 16 1012.2 1012.2 0.0
23/11:30am 35.7 31.6 8.5 19 15.4 SSW 20 35 11 19 1012.5 1012.5 0.0
23/11:00am 34.3 30.6 9.5 22 14.2 SW 19 28 10 15 1012.8 1012.8 0.0
23/10:30am 33.5 28.1 9.5 23 13.7 SSW 28 33 15 18 1013.1 1013.1 0.0
23/10:00am 32.4 28.1 9.2 24 13.1 S 22 33 12 18 1013.5 1013.5 0.0
23/09:30am 31.0 25.9 9.3 26 12.2 SSW 26 33 14 18 1013.6 1013.6 0.0

Other Formats:

Comma delimited format used in spreadsheet applications
http://www.bom.gov.au/fwo/IDW60801/IDW60801.94306.axf

JavaScript Object Notation format (JSON) in row-major order
http://www.bom.gov.au/fwo/IDW60801/IDW60801.94306.json